createdAt,value
2019-03-05T00:02:01.992Z,82.41
2019-03-05T00:04:34.035Z,82.12
2019-03-05T00:07:04.615Z,82.24
2019-03-05T00:12:27.301Z,82.21
2019-03-05T00:14:57.396Z,82.12
2019-03-05T00:17:27.504Z,82.24
2019-03-05T00:19:57.607Z,82.14
2019-03-05T00:22:27.743Z,82.17
2019-03-05T00:25:18.004Z,82.20
2019-03-05T00:31:08.886Z,82.15
2019-03-05T00:34:04.786Z,82.13
2019-03-05T00:36:59.485Z,82.07
2019-03-05T00:39:53.132Z,82.12
2019-03-05T00:46:14.773Z,82.15
2019-03-05T00:59:39.127Z,82.06
2019-03-05T01:06:16.842Z,81.86
2019-03-05T01:17:35.426Z,81.78
2019-03-05T01:20:25.236Z,81.89
2019-03-05T01:25:58.135Z,81.82
2019-03-05T01:31:50.693Z,81.89
2019-03-05T01:34:39.994Z,81.89
2019-03-05T01:37:29.585Z,81.78
2019-03-05T01:40:44.922Z,81.99
2019-03-05T01:43:15.626Z,82.06
2019-03-05T01:48:56.387Z,82.16
2019-03-05T01:51:47.518Z,82.49
2019-03-05T01:54:38.727Z,82.55
2019-03-05T01:57:11.528Z,82.15
2019-03-05T02:00:02.594Z,82.40
2019-03-05T02:02:34.684Z,82.38
2019-03-05T02:05:26.094Z,82.27
2019-03-05T02:11:01.422Z,81.66
2019-03-05T02:13:52.194Z,82.05
2019-03-05T02:19:44.396Z,81.26
2019-03-05T02:22:35.446Z,81.34
2019-03-05T02:25:43.852Z,80.95
2019-03-05T02:28:50.516Z,80.71
2019-03-05T02:31:58.957Z,80.63
2019-03-05T02:34:53.008Z,80.36
2019-03-05T02:38:05.322Z,80.59
2019-03-05T02:41:08.323Z,80.20
2019-03-05T02:44:16.669Z,80.50
2019-03-05T02:47:04.119Z,80.21
2019-03-05T02:50:12.288Z,80.06
2019-03-05T02:53:20.653Z,80.04
2019-03-05T02:56:12.956Z,79.26
2019-03-05T02:59:01.397Z,79.19
2019-03-05T03:07:23.474Z,79.53
2019-03-05T03:13:06.832Z,79.56
2019-03-05T03:15:38.602Z,79.59
2019-03-05T03:18:08.839Z,79.06
2019-03-05T03:20:38.932Z,79.02
2019-03-05T03:23:09.030Z,78.53
2019-03-05T03:25:39.121Z,78.82
2019-03-05T03:28:10.909Z,79.02
2019-03-05T03:30:41.088Z,79.24
2019-03-05T03:33:11.199Z,79.53
2019-03-05T03:35:41.287Z,79.86
2019-03-05T03:38:11.419Z,79.81
2019-03-05T03:40:41.514Z,79.52
2019-03-05T03:43:11.794Z,79.57
2019-03-05T03:45:41.887Z,79.60
2019-03-05T03:48:12.012Z,79.60
2019-03-05T03:50:44.108Z,79.39
2019-03-05T03:53:14.601Z,78.82
2019-03-05T03:55:45.591Z,78.92
2019-03-05T03:58:16.154Z,78.70
2019-03-05T04:00:46.676Z,78.83
2019-03-05T04:03:17.067Z,78.62
2019-03-05T04:05:48.753Z,78.49
2019-03-05T04:08:58.258Z,78.55
2019-03-05T04:11:28.370Z,78.81
2019-03-05T04:13:59.838Z,78.71
2019-03-05T04:16:49.402Z,78.14
2019-03-05T04:22:20.313Z,78.02
2019-03-05T04:28:24.451Z,78.55
2019-03-05T04:31:06.635Z,78.74
2019-03-05T04:33:57.322Z,78.35
2019-03-05T04:36:32.737Z,78.38
2019-03-05T04:39:21.927Z,78.56
2019-03-05T04:41:52.038Z,78.40
2019-03-05T04:47:23.101Z,78.19
2019-03-05T04:49:58.387Z,78.42
2019-03-05T04:52:31.602Z,78.29
2019-03-05T04:55:01.708Z,78.04
2019-03-05T04:57:31.817Z,77.85
2019-03-05T05:00:18.391Z,78.17
2019-03-05T05:02:52.814Z,78.40
2019-03-05T05:05:22.916Z,78.08
2019-03-05T05:07:53.026Z,77.86
2019-03-05T05:10:23.134Z,77.94
2019-03-05T05:12:53.220Z,78.12
2019-03-05T05:15:42.653Z,78.03
2019-03-05T05:18:13.781Z,77.70
2019-03-05T05:20:44.284Z,77.59
2019-03-05T05:23:27.235Z,77.71
2019-03-05T05:25:58.694Z,77.35
2019-03-05T05:28:29.102Z,77.35
2019-03-05T05:30:59.507Z,77.62
2019-03-05T05:33:30.073Z,77.36
2019-03-05T05:36:00.428Z,77.49
2019-03-05T05:38:31.012Z,77.06
2019-03-05T05:41:01.481Z,76.73
2019-03-05T05:43:32.786Z,77.23
2019-03-05T05:46:03.322Z,77.19
2019-03-05T05:54:33.281Z,76.42
2019-03-05T05:57:03.856Z,76.11
2019-03-05T05:59:53.354Z,76.29
2019-03-05T06:02:42.909Z,76.27
2019-03-05T06:05:16.629Z,76.54
2019-03-05T06:07:49.230Z,76.62
2019-03-05T06:13:29.647Z,76.84
2019-03-05T06:16:21.684Z,76.06
2019-03-05T06:19:11.215Z,75.39
2019-03-05T06:21:41.836Z,75.53
2019-03-05T06:24:25.793Z,75.57
2019-03-05T06:26:57.075Z,75.75
2019-03-05T06:32:32.546Z,75.37
2019-03-05T06:35:08.384Z,75.23
2019-03-05T06:43:30.741Z,75.00
2019-03-05T06:46:01.238Z,74.39
2019-03-05T06:48:31.730Z,74.09
2019-03-05T06:51:02.174Z,73.96
2019-03-05T06:53:32.819Z,74.43
2019-03-05T06:56:03.328Z,74.69
2019-03-05T06:58:33.835Z,74.50
2019-03-05T07:01:04.410Z,74.19
2019-03-05T07:03:34.984Z,74.49
2019-03-05T07:06:43.399Z,74.43
2019-03-05T07:09:25.011Z,74.69
2019-03-05T07:12:33.499Z,74.90
2019-03-05T07:15:41.871Z,74.83
2019-03-05T07:18:19.558Z,75.21
2019-03-05T07:21:46.973Z,75.12
2019-03-05T07:24:55.354Z,75.06
2019-03-05T07:27:47.227Z,75.08
2019-03-05T07:30:21.991Z,75.16
2019-03-05T07:32:52.767Z,75.62
2019-03-05T07:38:10.704Z,75.24
2019-03-05T07:40:41.126Z,75.28
2019-03-05T07:43:11.587Z,75.21
2019-03-05T07:45:42.060Z,75.02
2019-03-05T07:48:12.559Z,75.24
2019-03-05T07:50:43.011Z,74.38
2019-03-05T07:53:13.442Z,74.38
2019-03-05T07:58:35.528Z,74.56
2019-03-05T08:04:08.153Z,73.78
2019-03-05T08:06:38.701Z,73.99
2019-03-05T08:09:47.038Z,73.97
2019-03-05T08:12:55.560Z,73.75
2019-03-05T08:18:34.847Z,73.90
2019-03-05T08:21:05.233Z,74.04
2019-03-05T08:23:35.559Z,73.85
2019-03-05T08:26:06.270Z,73.84
2019-03-05T08:46:14.667Z,71.71
2019-03-05T08:48:45.204Z,72.09
2019-03-05T08:54:07.636Z,72.35
2019-03-05T08:56:48.707Z,72.73
2019-03-05T08:59:19.227Z,72.75
2019-03-05T09:01:49.727Z,72.43
2019-03-05T09:13:31.950Z,72.30
2019-03-05T09:19:01.192Z,72.43
2019-03-05T09:21:31.285Z,72.03
2019-03-05T09:24:01.392Z,72.06
2019-03-05T09:32:23.766Z,71.62
2019-03-05T09:34:54.248Z,72.00
2019-03-05T09:37:24.987Z,71.45
2019-03-05T09:43:00.059Z,70.94
2019-03-05T09:45:30.761Z,71.19
2019-03-05T09:48:01.238Z,70.92
2019-03-05T09:50:32.363Z,71.13
2019-03-05T09:59:07.230Z,71.08
2019-03-05T10:01:37.828Z,70.79
2019-03-05T10:04:08.354Z,70.74
2019-03-05T10:09:33.075Z,70.19
2019-03-05T10:12:03.180Z,69.46
2019-03-05T10:14:33.257Z,70.44
2019-03-05T10:17:05.515Z,70.68
2019-03-05T10:19:38.415Z,70.42
2019-03-05T10:27:53.238Z,70.28
2019-03-05T10:30:28.061Z,70.85
2019-03-05T10:38:56.877Z,69.09
2019-03-05T10:41:46.684Z,68.73
2019-03-05T10:44:32.860Z,69.74
2019-03-05T10:47:02.995Z,69.80
2019-03-05T10:49:34.706Z,70.23
2019-03-05T10:52:16.760Z,69.39
2019-03-05T11:00:31.130Z,68.63
2019-03-05T11:15:02.573Z,68.41
2019-03-05T11:20:58.634Z,66.34
2019-03-05T11:23:29.254Z,66.80
2019-03-05T11:28:42.229Z,65.75
2019-03-05T11:31:12.740Z,66.44
2019-03-05T11:36:32.772Z,66.98
2019-03-05T11:39:22.478Z,67.29
2019-03-05T11:41:53.027Z,66.60
2019-03-05T11:47:05.710Z,66.22
2019-03-05T11:49:36.354Z,64.93
2019-03-05T11:52:06.955Z,64.92
2019-03-05T11:54:37.399Z,64.59
2019-03-05T11:57:13.427Z,64.91
2019-03-05T11:59:43.857Z,64.37
2019-03-05T12:02:21.817Z,64.27
2019-03-05T12:05:05.978Z,65.17
2019-03-05T12:07:36.394Z,66.16
2019-03-05T12:10:07.903Z,66.43
2019-03-05T12:12:38.529Z,66.25
2019-03-05T12:15:30.492Z,66.52
2019-03-05T12:18:00.814Z,66.39
2019-03-05T12:23:20.606Z,65.29
2019-03-05T12:25:51.236Z,64.57
2019-03-05T12:34:09.094Z,63.05
2019-03-05T12:36:39.528Z,62.64
2019-03-05T12:39:30.653Z,62.52
2019-03-05T12:44:43.547Z,61.46
2019-03-05T12:47:15.921Z,61.46
2019-03-05T12:49:51.327Z,62.69
2019-03-05T12:52:21.519Z,62.79
2019-03-05T12:54:51.639Z,63.09
2019-03-05T13:03:24.809Z,64.07
2019-03-05T13:06:01.425Z,63.66
2019-03-05T13:08:31.870Z,65.13
2019-03-05T13:11:02.396Z,65.66
2019-03-05T13:27:44.081Z,64.90
2019-03-05T13:30:36.082Z,63.93
2019-03-05T13:33:06.518Z,64.45
2019-03-05T13:35:37.398Z,62.34
2019-03-05T13:38:09.457Z,61.20
2019-03-05T13:40:46.338Z,62.29
2019-03-05T13:43:16.832Z,62.85
2019-03-05T13:45:49.545Z,62.19
2019-03-05T13:48:58.210Z,61.46
2019-03-05T13:51:50.444Z,60.96
2019-03-05T13:55:01.656Z,60.05
2019-03-05T13:58:10.184Z,59.84
2019-03-05T14:01:01.167Z,59.75
2019-03-05T14:03:44.229Z,59.38
2019-03-05T14:06:55.358Z,59.95
2019-03-05T14:09:23.958Z,60.51
2019-03-05T14:15:02.935Z,61.42
2019-03-05T14:17:37.337Z,61.42
2019-03-05T14:20:32.097Z,61.48
2019-03-05T14:23:21.344Z,61.85
2019-03-05T14:25:53.763Z,61.15
2019-03-05T14:28:42.711Z,62.01
2019-03-05T14:31:14.843Z,61.33
2019-03-05T14:33:45.408Z,60.66
2019-03-05T14:39:32.778Z,59.74
2019-03-05T14:45:19.373Z,60.78
2019-03-05T14:48:08.654Z,61.09
2019-03-05T14:50:39.452Z,61.09
2019-03-05T14:53:33.721Z,61.28
2019-03-05T14:56:04.209Z,61.71
2019-03-05T14:58:34.668Z,61.94
2019-03-05T15:01:25.521Z,62.03
2019-03-05T15:03:55.623Z,61.78
2019-03-05T15:06:25.750Z,62.24
2019-03-05T15:08:55.836Z,62.67
2019-03-05T15:11:25.978Z,62.96
2019-03-05T15:14:17.140Z,60.80
2019-03-05T15:16:47.189Z,59.93
2019-03-05T15:19:21.393Z,59.71
2019-03-05T15:22:00.571Z,60.21
2019-03-05T15:24:31.147Z,59.65
2019-03-05T15:27:01.610Z,59.53
2019-03-05T15:29:32.336Z,59.52
2019-03-05T15:37:33.624Z,59.81
2019-03-05T15:40:23.385Z,60.23
2019-03-05T15:42:54.070Z,61.48
2019-03-05T15:45:24.551Z,61.72
2019-03-05T15:47:55.295Z,62.21
2019-03-05T15:50:25.794Z,62.55
2019-03-05T15:53:08.841Z,61.14
2019-03-05T15:55:47.627Z,61.03
2019-03-05T16:01:21.910Z,60.33
2019-03-05T16:06:49.655Z,61.45
2019-03-05T16:09:39.311Z,61.76
2019-03-05T16:12:22.118Z,61.84
2019-03-05T16:14:52.812Z,61.94
2019-03-05T16:17:29.720Z,62.45
2019-03-05T16:20:07.231Z,62.96
2019-03-05T16:22:38.056Z,62.57
2019-03-05T16:25:13.800Z,62.51
2019-03-05T16:27:47.874Z,62.23
2019-03-05T16:30:44.448Z,62.52
2019-03-05T16:33:37.073Z,61.79
2019-03-05T16:36:25.519Z,62.29
2019-03-05T16:42:07.990Z,61.70
2019-03-05T16:45:17.737Z,61.87
2019-03-05T16:48:09.148Z,61.51
2019-03-05T16:51:04.079Z,61.52
2019-03-05T16:53:53.556Z,61.44
2019-03-05T16:56:43.065Z,61.66
2019-03-05T16:59:33.882Z,60.89
2019-03-05T17:02:23.459Z,60.03
2019-03-05T17:05:12.919Z,60.36
2019-03-05T17:08:02.333Z,60.67
2019-03-05T17:10:52.258Z,60.63
2019-03-05T17:13:41.788Z,60.82
2019-03-05T17:19:07.021Z,61.01
2019-03-05T17:21:37.609Z,60.97
2019-03-05T17:24:08.114Z,61.17
2019-03-05T17:26:40.225Z,61.54
2019-03-05T17:32:20.012Z,61.53
2019-03-05T17:34:52.864Z,61.61
2019-03-05T17:37:23.458Z,61.30
2019-03-05T17:39:56.247Z,60.67
2019-03-05T17:42:28.610Z,60.72
2019-03-05T17:45:11.153Z,59.98
2019-03-05T17:47:41.764Z,60.44
2019-03-05T17:50:12.791Z,60.24
2019-03-05T17:52:43.259Z,59.93
2019-03-05T17:55:24.237Z,60.12
2019-03-05T17:57:52.095Z,60.14
2019-03-05T18:03:25.611Z,60.49
2019-03-05T18:05:58.171Z,60.55
2019-03-05T18:14:16.581Z,61.18
2019-03-05T18:17:06.479Z,60.96
2019-03-05T18:19:37.241Z,61.19
2019-03-05T18:22:07.768Z,61.67
2019-03-05T18:24:38.086Z,62.08
2019-03-05T18:27:08.980Z,62.46
2019-03-05T18:36:21.321Z,63.17
2019-03-05T18:38:51.805Z,63.17
2019-03-05T18:41:22.289Z,63.38
2019-03-05T18:43:52.888Z,63.53
2019-03-05T18:46:23.441Z,63.76
2019-03-05T18:51:49.411Z,64.65
2019-03-05T18:54:19.973Z,64.91
2019-03-05T18:56:50.550Z,65.02
2019-03-05T18:59:21.013Z,65.09
2019-03-05T19:04:54.928Z,65.05
2019-03-05T19:07:25.086Z,65.00
2019-03-05T19:09:57.174Z,64.80
2019-03-05T19:12:27.893Z,64.81
2019-03-05T19:14:58.842Z,64.88
2019-03-05T19:17:29.398Z,64.73
2019-03-05T19:20:00.013Z,65.27
2019-03-05T19:25:16.636Z,65.23
2019-03-05T19:31:18.837Z,65.04
2019-03-05T19:33:56.167Z,64.65
2019-03-05T19:36:27.054Z,63.48
2019-03-05T19:38:57.702Z,63.09
2019-03-05T19:41:29.721Z,62.65
2019-03-05T19:46:59.299Z,61.84
2019-03-05T19:49:30.253Z,61.79
2019-03-05T19:52:00.900Z,61.48
2019-03-05T19:54:31.630Z,61.06
2019-03-05T19:57:02.315Z,60.87
2019-03-05T19:59:33.623Z,61.27
2019-03-05T20:05:40.220Z,61.17
2019-03-05T20:11:02.727Z,60.83
2019-03-05T20:13:33.281Z,61.09
2019-03-05T20:16:03.988Z,60.83
2019-03-05T20:18:34.828Z,60.99
2019-03-05T20:27:03.940Z,60.97
2019-03-05T20:33:03.479Z,61.33
2019-03-05T20:35:38.404Z,61.75
2019-03-05T20:38:08.776Z,62.66
2019-03-05T20:40:38.988Z,63.10
2019-03-05T20:43:09.406Z,63.99
2019-03-05T20:45:41.876Z,63.89
2019-03-05T20:48:12.470Z,63.85
2019-03-05T20:50:44.918Z,63.48
2019-03-05T20:56:08.182Z,63.91
2019-03-05T20:58:38.390Z,64.19
2019-03-05T21:03:52.911Z,65.27
2019-03-05T21:09:32.700Z,65.49
2019-03-05T21:12:16.481Z,65.79
2019-03-05T21:15:06.612Z,66.05
2019-03-05T21:17:37.101Z,66.45
2019-03-05T21:20:28.555Z,66.57
2019-03-05T21:23:18.154Z,66.48
2019-03-05T21:25:48.847Z,66.43
2019-03-05T21:31:46.443Z,67.08
2019-03-05T21:34:36.038Z,67.03
2019-03-05T21:37:19.583Z,67.13
2019-03-05T21:39:50.254Z,67.42
2019-03-05T21:42:39.878Z,67.54
2019-03-05T21:45:31.623Z,67.50
2019-03-05T21:48:09.467Z,67.76
2019-03-05T21:50:39.933Z,67.65
2019-03-05T21:53:12.045Z,67.52
2019-03-05T21:55:47.735Z,67.70
2019-03-05T21:58:18.241Z,67.64
2019-03-05T22:00:50.346Z,67.51
2019-03-05T22:03:20.956Z,67.71
2019-03-05T22:08:40.884Z,67.72
2019-03-05T22:11:11.339Z,67.97
2019-03-05T22:13:41.931Z,67.96
2019-03-05T22:16:12.620Z,67.90
2019-03-05T22:18:43.089Z,67.82
2019-03-05T22:21:14.210Z,67.58
2019-03-05T22:29:35.429Z,67.69
2019-03-05T22:32:05.905Z,67.66
2019-03-05T22:34:36.526Z,67.63
2019-03-05T22:37:07.101Z,67.65
2019-03-05T22:39:37.609Z,67.63
2019-03-05T22:42:08.238Z,67.44
2019-03-05T22:44:38.740Z,67.45
2019-03-05T22:50:04.683Z,67.44
2019-03-05T22:52:36.753Z,67.35
2019-03-05T22:55:07.504Z,67.25
2019-03-05T22:57:37.988Z,67.15
2019-03-05T23:14:22.301Z,67.17
2019-03-05T23:19:42.250Z,66.79
2019-03-05T23:22:33.173Z,66.63
2019-03-05T23:25:04.028Z,66.78
2019-03-05T23:27:56.507Z,67.21
2019-03-05T23:30:26.990Z,68.04
2019-03-05T23:35:51.393Z,67.44
2019-03-05T23:38:21.975Z,67.18
2019-03-05T23:40:52.589Z,67.09
2019-03-05T23:43:23.059Z,67.30
2019-03-05T23:45:53.614Z,67.26
2019-03-05T23:51:19.330Z,67.15
2019-03-05T23:56:45.229Z,66.93
2019-03-05T23:59:15.954Z,66.75
